Archival Weather

Chicago O'Hare International

Chicago, Illinois (KORD)

Report from: Friday, September 23, 2022 8:51 PM CDT
Current time: Sunday, December 4, 2022 5:38 AM CST

Current weather
Weather history
Weather forecast

Temperature15.0°C (59.0°F)
Dew point5.0°C (41.0°F)
Winds 5 kts (2.6 m/s, 5.8 mph) South (180°)
Visibility10 mi. (16.1 km)
Clouds Ceiling: Overcast 9,000 ft. (2,743 m)
Altimeter30.08 in.Hg (1019 mB)
Relative humidity51 %
Density altitude-53 ft. (-16 m)
Sea-level pressure101.9 kPa (1019 mB, 30.08 in.Hg)
Remarks Automated weather observing station with precipitation discriminator
Flight conditions Visual Meteorological Conditions
Raw dataKORD 240151Z 18005KT 10SM OVC090 15/05 A3008 RMK AO2 SLP187 T01500050
An error has occurred. This application may no longer respond until reloaded. Reload 🗙